createdAt,value
2023-05-14T00:00:22.203Z,248.06
2023-05-14T00:01:21.918Z,249.32
2023-05-14T00:02:22.012Z,248.86
2023-05-14T00:03:22.106Z,246.92
2023-05-14T00:04:22.113Z,245.86
2023-05-14T00:05:22.150Z,246.22
2023-05-14T00:06:22.200Z,246.99
2023-05-14T00:07:22.235Z,246.06
2023-05-14T00:08:22.306Z,246.38
2023-05-14T00:09:22.342Z,243.35
2023-05-14T00:10:22.728Z,243.47
2023-05-14T00:11:22.450Z,242.02
2023-05-14T00:12:22.530Z,242.28
2023-05-14T00:13:22.569Z,241.81
2023-05-14T00:14:22.645Z,240.21
2023-05-14T00:15:22.678Z,239.10
2023-05-14T00:16:22.786Z,238.72
2023-05-14T00:17:22.848Z,238.34
2023-05-14T00:18:22.850Z,237.17
2023-05-14T00:19:22.881Z,234.91
2023-05-14T00:20:23.203Z,235.11
2023-05-14T00:21:23.010Z,235.27
2023-05-14T00:22:23.047Z,233.77
2023-05-14T00:23:23.110Z,233.55
2023-05-14T00:24:23.157Z,233.71
2023-05-14T00:25:23.210Z,237.19
2023-05-14T00:26:23.309Z,235.68
2023-05-14T00:27:23.327Z,236.77
2023-05-14T00:28:23.377Z,236.38
2023-05-14T00:29:23.423Z,235.75
2023-05-14T00:30:23.653Z,232.93
2023-05-14T00:31:23.585Z,235.64
2023-05-14T00:32:23.591Z,236.57
2023-05-14T00:33:23.640Z,235.97
2023-05-14T00:34:23.672Z,235.90
2023-05-14T00:35:23.731Z,235.01
2023-05-14T00:36:23.778Z,235.54
2023-05-14T00:37:23.828Z,237.28
2023-05-14T00:38:23.890Z,236.94
2023-05-14T00:39:23.969Z,237.53
2023-05-14T00:40:24.233Z,236.07
2023-05-14T00:41:24.062Z,235.32
2023-05-14T00:42:24.108Z,234.22
2023-05-14T00:43:24.173Z,234.26
2023-05-14T00:44:24.220Z,232.65
2023-05-14T00:45:24.288Z,231.65
2023-05-14T00:46:24.347Z,230.36
2023-05-14T00:47:24.379Z,232.10
2023-05-14T00:48:24.444Z,230.17
2023-05-14T00:49:24.473Z,229.40
2023-05-14T00:50:24.729Z,229.20
2023-05-14T00:51:24.566Z,226.75
2023-05-14T00:52:24.655Z,225.51
2023-05-14T00:53:24.696Z,227.31
2023-05-14T00:54:24.762Z,229.92
2023-05-14T00:55:24.790Z,229.49
2023-05-14T00:56:24.840Z,227.34
2023-05-14T00:57:24.913Z,228.97
2023-05-14T00:58:24.970Z,229.91
2023-05-14T00:59:25.005Z,227.55
2023-05-14T01:00:25.244Z,228.96
2023-05-14T01:01:25.196Z,227.86
2023-05-14T01:02:25.199Z,228.26
2023-05-14T01:03:25.297Z,227.60
2023-05-14T01:04:25.263Z,228.02
2023-05-14T01:05:25.310Z,228.32
2023-05-14T01:06:25.377Z,225.76
2023-05-14T01:07:25.416Z,224.12
2023-05-14T01:08:25.473Z,223.24
2023-05-14T01:09:25.516Z,224.26
2023-05-14T01:10:25.852Z,224.16
2023-05-14T01:11:25.633Z,223.79
2023-05-14T01:12:25.685Z,224.43
2023-05-14T01:13:25.729Z,223.46
2023-05-14T01:14:25.801Z,225.17
2023-05-14T01:15:25.834Z,223.75
2023-05-14T01:16:25.932Z,224.63
2023-05-14T01:17:25.956Z,225.34
2023-05-14T01:18:26.080Z,225.28
2023-05-14T01:19:26.040Z,225.99
2023-05-14T01:20:26.283Z,224.93
2023-05-14T01:21:26.150Z,227.45
2023-05-14T01:22:26.212Z,227.20
2023-05-14T01:23:26.281Z,225.86
2023-05-14T01:24:26.327Z,224.97
2023-05-14T01:25:26.357Z,224.71
2023-05-14T01:26:26.411Z,224.70
2023-05-14T01:27:26.466Z,227.35
2023-05-14T01:28:26.554Z,228.39
2023-05-14T01:29:26.596Z,226.70
2023-05-14T01:30:26.786Z,225.09
2023-05-14T01:31:26.703Z,224.91
2023-05-14T01:32:26.852Z,225.25
2023-05-14T01:33:26.820Z,229.00
2023-05-14T01:34:26.841Z,229.07
2023-05-14T01:35:26.894Z,228.36
2023-05-14T01:36:26.957Z,228.21
2023-05-14T01:37:27.000Z,229.05
2023-05-14T01:38:27.045Z,226.41
2023-05-14T01:39:27.109Z,227.64
2023-05-14T01:40:27.144Z,231.88
2023-05-14T01:41:27.207Z,231.69
2023-05-14T01:42:27.287Z,229.25
2023-05-14T01:43:27.333Z,231.73
2023-05-14T01:44:27.377Z,230.52
2023-05-14T01:45:27.434Z,231.22
2023-05-14T01:46:27.531Z,231.65
2023-05-14T01:47:27.520Z,232.27
2023-05-14T01:48:27.595Z,231.42
2023-05-14T01:49:27.639Z,230.90
2023-05-14T01:50:27.671Z,230.11
2023-05-14T01:51:27.720Z,230.95
2023-05-14T01:52:27.769Z,231.16
2023-05-14T01:53:27.828Z,234.15
2023-05-14T01:54:27.907Z,231.12
2023-05-14T01:55:27.940Z,231.13
2023-05-14T01:56:27.996Z,231.86
2023-05-14T01:57:28.039Z,230.59
2023-05-14T01:58:28.098Z,233.30
2023-05-14T01:59:28.176Z,232.18
2023-05-14T02:00:28.234Z,231.07
2023-05-14T02:01:28.285Z,230.44
2023-05-14T02:02:28.396Z,230.88
2023-05-14T02:03:28.367Z,228.61
2023-05-14T02:04:28.423Z,230.19
2023-05-14T02:05:28.467Z,228.58
2023-05-14T02:06:28.519Z,227.65
2023-05-14T02:07:28.558Z,226.01
2023-05-14T02:08:28.601Z,224.55
2023-05-14T02:09:28.664Z,226.28
2023-05-14T02:10:28.745Z,226.66
2023-05-14T02:11:28.763Z,226.52
2023-05-14T02:12:28.823Z,225.31
2023-05-14T02:13:28.865Z,224.40
2023-05-14T02:14:28.941Z,223.87
2023-05-14T02:15:28.983Z,228.29
2023-05-14T02:16:29.044Z,224.38
2023-05-14T02:17:29.103Z,224.73
2023-05-14T02:18:29.128Z,226.52
2023-05-14T02:19:29.162Z,224.08
2023-05-14T02:20:29.214Z,224.52
2023-05-14T02:21:29.275Z,223.00
2023-05-14T02:22:29.326Z,220.85
2023-05-14T02:23:40.361Z,222.98
2023-05-14T02:24:30.368Z,223.09
2023-05-14T02:25:29.380Z,223.40
2023-05-14T02:26:29.360Z,223.07
2023-05-14T02:27:29.369Z,224.71
2023-05-14T02:28:29.364Z,225.76
2023-05-14T02:29:29.347Z,224.64
2023-05-14T02:30:29.346Z,223.34
2023-05-14T02:31:29.385Z,222.92
2023-05-14T02:32:29.373Z,222.59
2023-05-14T02:33:29.390Z,223.70
2023-05-14T02:34:29.418Z,224.37
2023-05-14T02:35:29.471Z,223.26
2023-05-14T02:36:29.539Z,221.62
2023-05-14T02:37:29.550Z,221.71
2023-05-14T02:38:29.611Z,222.83
2023-05-14T02:39:29.672Z,221.66
2023-05-14T02:40:29.723Z,224.12
2023-05-14T02:41:29.760Z,223.62
2023-05-14T02:42:29.840Z,223.18
2023-05-14T02:43:29.867Z,221.17
2023-05-14T02:44:30.035Z,222.44
2023-05-14T02:45:29.993Z,222.21
2023-05-14T02:46:30.095Z,222.73
2023-05-14T02:47:30.113Z,221.78
2023-05-14T02:48:30.153Z,222.25
2023-05-14T02:49:30.205Z,220.97
2023-05-14T02:50:30.285Z,221.22
2023-05-14T02:51:30.318Z,218.50
2023-05-14T02:52:30.372Z,217.79
2023-05-14T02:53:30.431Z,217.26
2023-05-14T02:54:30.485Z,218.71
2023-05-14T02:55:30.526Z,218.93
2023-05-14T02:56:30.590Z,219.59
2023-05-14T02:57:30.632Z,219.05
2023-05-14T02:58:30.684Z,220.45
2023-05-14T02:59:30.724Z,221.95
2023-05-14T03:00:30.772Z,219.88
2023-05-14T03:01:30.862Z,219.39
2023-05-14T03:02:31.000Z,218.89
2023-05-14T03:03:30.956Z,219.33
2023-05-14T03:04:30.989Z,219.04
2023-05-14T03:05:31.364Z,219.44
2023-05-14T03:06:31.104Z,220.34
2023-05-14T03:07:31.152Z,219.01
2023-05-14T03:08:31.194Z,219.41
2023-05-14T03:09:31.246Z,219.85
2023-05-14T03:10:31.312Z,218.64
2023-05-14T03:11:31.346Z,220.96
2023-05-14T03:12:31.434Z,220.49
2023-05-14T03:13:31.466Z,220.29
2023-05-14T03:14:31.541Z,218.71
2023-05-14T03:15:31.574Z,217.55
2023-05-14T03:16:31.679Z,218.37
2023-05-14T03:17:31.705Z,219.46
2023-05-14T03:18:31.765Z,219.51
2023-05-14T03:19:31.808Z,219.36
2023-05-14T03:20:31.839Z,220.86
2023-05-14T03:21:31.903Z,220.42
2023-05-14T03:22:31.959Z,219.86
2023-05-14T03:23:32.012Z,220.64
2023-05-14T03:24:32.049Z,219.60
2023-05-14T03:25:32.126Z,220.89
2023-05-14T03:26:32.150Z,221.25
2023-05-14T03:27:32.209Z,223.47
2023-05-14T03:28:32.267Z,222.83
2023-05-14T03:29:32.293Z,221.73
2023-05-14T03:30:32.436Z,222.18
2023-05-14T03:31:32.407Z,221.55
2023-05-14T03:32:32.495Z,220.11
2023-05-14T03:33:32.519Z,219.82
2023-05-14T03:34:32.579Z,221.11
2023-05-14T03:35:32.671Z,221.97
2023-05-14T03:36:32.696Z,225.18
2023-05-14T03:37:32.736Z,222.49
2023-05-14T03:38:32.782Z,222.83
2023-05-14T03:39:32.835Z,221.47
2023-05-14T03:40:32.905Z,220.18
2023-05-14T03:41:32.972Z,221.08
2023-05-14T03:42:32.991Z,221.04
2023-05-14T03:43:33.047Z,221.32
2023-05-14T03:44:33.094Z,220.71
2023-05-14T03:45:33.166Z,220.82
2023-05-14T03:46:33.238Z,221.85
2023-05-14T03:47:33.258Z,221.06
2023-05-14T03:48:33.361Z,221.71
2023-05-14T03:49:33.376Z,221.75
2023-05-14T03:50:33.428Z,222.16
2023-05-14T03:51:33.479Z,219.22
2023-05-14T03:52:33.531Z,220.36
2023-05-14T03:53:33.585Z,220.04
2023-05-14T03:54:33.624Z,220.45
2023-05-14T03:55:33.716Z,220.69
2023-05-14T03:56:33.740Z,220.18
2023-05-14T03:57:33.807Z,219.11
2023-05-14T03:58:33.868Z,219.49
2023-05-14T03:59:33.911Z,218.57
2023-05-14T04:00:33.958Z,217.75
2023-05-14T04:01:34.004Z,216.67
2023-05-14T04:02:34.182Z,215.86
2023-05-14T04:03:34.338Z,216.38
2023-05-14T04:04:34.212Z,219.12
2023-05-14T04:05:34.219Z,219.29
2023-05-14T04:06:34.275Z,217.63
2023-05-14T04:07:34.306Z,218.22
2023-05-14T04:08:34.380Z,216.69
2023-05-14T04:09:34.416Z,218.66
2023-05-14T04:10:34.477Z,218.41
2023-05-14T04:11:34.549Z,218.72
2023-05-14T04:12:34.603Z,217.54
2023-05-14T04:13:34.656Z,216.51
2023-05-14T04:15:42.146Z,25.00
2023-05-14T04:16:42.343Z,25.00
2023-05-14T04:17:42.118Z,25.00
2023-05-14T04:18:42.187Z,25.00
2023-05-14T04:19:42.100Z,25.00
2023-05-14T04:20:42.102Z,25.00
2023-05-14T04:21:42.080Z,27.22
2023-05-14T04:22:42.093Z,24.49
2023-05-14T04:23:42.089Z,25.00
2023-05-14T04:24:42.077Z,25.00
2023-05-14T04:25:42.107Z,25.24
2023-05-14T04:26:42.078Z,27.61
2023-05-14T04:27:42.050Z,27.05
2023-05-14T04:28:42.045Z,27.79
2023-05-14T04:29:42.038Z,25.00
2023-05-14T04:30:42.033Z,26.86
2023-05-14T04:31:42.090Z,25.00
2023-05-14T04:32:42.044Z,27.30
2023-05-14T04:33:42.012Z,27.03
2023-05-14T04:34:42.005Z,26.50
2023-05-14T04:35:42.002Z,25.00
2023-05-14T04:36:41.990Z,28.83
2023-05-14T04:37:41.967Z,25.00
2023-05-14T04:38:41.961Z,26.78
2023-05-14T04:39:41.956Z,27.23
2023-05-14T04:40:41.978Z,28.79
2023-05-14T04:41:41.963Z,25.61
2023-05-14T04:42:41.958Z,28.40
2023-05-14T04:43:41.929Z,30.51
2023-05-14T04:44:41.934Z,27.38
2023-05-14T04:45:41.931Z,27.45
2023-05-14T04:46:41.913Z,26.42
2023-05-14T04:47:42.031Z,25.00
2023-05-14T04:48:41.897Z,27.81
2023-05-14T04:49:41.962Z,25.71
2023-05-14T04:50:41.878Z,25.14
2023-05-14T04:51:41.888Z,26.25
2023-05-14T04:52:41.859Z,25.30
2023-05-14T04:53:41.928Z,27.63
2023-05-14T04:54:42.030Z,32.86
2023-05-14T04:55:42.019Z,32.63
2023-05-14T04:56:42.084Z,25.00
2023-05-14T04:57:42.135Z,28.30
2023-05-14T04:58:42.178Z,28.71
2023-05-14T04:59:42.227Z,30.36
2023-05-14T05:00:42.272Z,29.61
2023-05-14T05:01:42.428Z,26.92
2023-05-14T05:02:42.449Z,25.00
2023-05-14T05:03:42.470Z,27.55
2023-05-14T05:04:42.476Z,26.24
2023-05-14T05:05:42.532Z,29.40
2023-05-14T05:06:42.598Z,27.12
2023-05-14T05:07:42.644Z,26.65
2023-05-14T05:08:42.703Z,28.55
2023-05-14T05:09:42.740Z,27.96
2023-05-14T05:10:42.815Z,27.92
2023-05-14T05:11:42.854Z,27.10
2023-05-14T05:12:42.905Z,28.25
2023-05-14T05:13:42.953Z,26.89
2023-05-14T05:14:43.009Z,28.65
2023-05-14T05:15:43.089Z,26.90
2023-05-14T05:16:43.143Z,28.48
2023-05-14T05:17:43.233Z,25.41
2023-05-14T05:18:43.248Z,26.36
2023-05-14T05:19:44.419Z,29.14
2023-05-14T05:20:43.339Z,29.08
2023-05-14T05:21:43.421Z,26.95
2023-05-14T05:22:43.438Z,27.80
2023-05-14T05:23:43.491Z,26.96
2023-05-14T05:24:43.545Z,27.55
2023-05-14T05:25:43.584Z,26.66
2023-05-14T05:26:43.626Z,28.89
2023-05-14T05:27:43.710Z,27.96
2023-05-14T05:28:43.734Z,26.97
2023-05-14T05:29:43.775Z,29.12
2023-05-14T05:30:43.840Z,28.89
2023-05-14T05:31:43.901Z,25.61
2023-05-14T05:32:43.996Z,29.50
2023-05-14T05:33:43.974Z,27.08
2023-05-14T05:34:44.057Z,29.72
2023-05-14T05:35:44.092Z,31.16
2023-05-14T05:36:44.141Z,29.03
2023-05-14T05:37:44.202Z,30.11
2023-05-14T05:38:44.254Z,26.89
2023-05-14T05:39:44.282Z,25.00
2023-05-14T05:40:44.336Z,28.82
2023-05-14T05:41:44.390Z,25.94
2023-05-14T05:42:44.433Z,27.39
2023-05-14T05:43:44.476Z,28.35
2023-05-14T05:44:44.513Z,25.23
2023-05-14T05:45:44.578Z,25.49
2023-05-14T05:46:44.658Z,27.21
2023-05-14T05:47:44.707Z,28.14
2023-05-14T05:48:44.703Z,27.66
2023-05-14T05:49:44.776Z,28.46
2023-05-14T05:50:44.853Z,25.82
2023-05-14T05:51:44.871Z,25.63
2023-05-14T05:52:44.905Z,26.01
2023-05-14T05:53:44.982Z,26.70
2023-05-14T05:54:45.016Z,30.96
2023-05-14T05:55:45.061Z,32.96
2023-05-14T05:56:45.123Z,28.54
2023-05-14T05:57:45.185Z,29.99
2023-05-14T05:58:45.236Z,27.68
2023-05-14T05:59:45.293Z,30.60
2023-05-14T06:00:45.331Z,32.08
2023-05-14T06:01:45.410Z,32.38
2023-05-14T06:02:45.541Z,28.59
2023-05-14T06:03:47.668Z,25.99
2023-05-14T06:04:45.525Z,27.74
2023-05-14T06:05:45.552Z,26.80
2023-05-14T06:06:45.459Z,28.41
2023-05-14T06:07:45.459Z,29.11
2023-05-14T06:08:45.473Z,30.96
2023-05-14T06:09:45.475Z,29.91
2023-05-14T06:10:46.910Z,32.88
2023-05-14T06:11:45.443Z,32.97
2023-05-14T06:12:45.435Z,32.91
2023-05-14T06:13:45.433Z,33.46
2023-05-14T06:14:45.424Z,33.10
2023-05-14T06:15:45.400Z,31.42
2023-05-14T06:16:45.417Z,30.25
2023-05-14T06:17:45.439Z,29.68
2023-05-14T06:18:45.515Z,31.72
2023-05-14T06:19:45.534Z,31.25
2023-05-14T06:20:45.581Z,33.62
2023-05-14T06:21:45.633Z,34.99
2023-05-14T06:22:45.693Z,33.21
2023-05-14T06:23:45.710Z,31.17
2023-05-14T06:24:45.805Z,29.08
2023-05-14T06:25:45.816Z,31.40
2023-05-14T06:26:45.838Z,32.26
2023-05-14T06:27:45.890Z,30.65
2023-05-14T06:28:45.936Z,30.07
2023-05-14T06:29:45.996Z,32.68
2023-05-14T06:30:46.047Z,30.51
2023-05-14T06:31:46.093Z,28.17
2023-05-14T06:32:46.168Z,32.31
2023-05-14T06:33:46.182Z,34.13
2023-05-14T06:34:46.227Z,33.57
2023-05-14T06:35:46.284Z,34.26
2023-05-14T06:36:46.308Z,36.68
2023-05-14T06:37:46.370Z,37.94
2023-05-14T06:38:46.404Z,41.14
2023-05-14T06:39:46.448Z,43.09
2023-05-14T06:40:46.503Z,41.94
2023-05-14T06:41:46.544Z,43.75
2023-05-14T06:42:46.567Z,38.73
2023-05-14T06:43:46.623Z,36.42
2023-05-14T06:44:46.671Z,33.04
2023-05-14T06:45:46.783Z,32.25
2023-05-14T06:46:46.734Z,34.04
2023-05-14T06:47:46.835Z,37.28
2023-05-14T06:48:46.825Z,38.11
2023-05-14T06:49:46.831Z,38.14
2023-05-14T06:50:46.907Z,36.55
2023-05-14T06:51:46.924Z,32.03
2023-05-14T06:52:46.976Z,28.47
2023-05-14T06:53:46.989Z,25.00
2023-05-14T06:54:47.017Z,25.00
2023-05-14T06:55:47.071Z,27.23
2023-05-14T06:56:47.126Z,28.90
2023-05-14T06:57:47.154Z,31.13
2023-05-14T06:58:47.159Z,28.89
2023-05-14T06:59:47.208Z,25.87
2023-05-14T07:00:47.250Z,28.17
2023-05-14T07:01:47.344Z,25.57
2023-05-14T07:02:47.342Z,26.55
2023-05-14T07:03:47.377Z,28.65
2023-05-14T07:04:47.364Z,27.10
2023-05-14T07:05:47.386Z,26.81
2023-05-14T07:06:47.453Z,27.03
2023-05-14T07:07:47.469Z,27.78
2023-05-14T07:08:47.491Z,30.74
2023-05-14T07:09:47.508Z,28.68
2023-05-14T07:10:47.535Z,30.21
2023-05-14T07:11:47.575Z,28.43
2023-05-14T07:12:47.609Z,31.77
2023-05-14T07:13:47.623Z,33.48
2023-05-14T07:14:47.664Z,32.13
2023-05-14T07:15:47.717Z,33.47
2023-05-14T07:16:47.786Z,36.86
2023-05-14T07:17:47.751Z,42.50
2023-05-14T07:18:47.786Z,41.99
2023-05-14T07:19:47.808Z,45.15
2023-05-14T07:20:47.819Z,46.52
2023-05-14T07:21:47.858Z,47.79
2023-05-14T07:22:47.857Z,50.50
2023-05-14T07:23:47.888Z,50.46
2023-05-14T07:24:47.904Z,50.59
2023-05-14T07:25:47.937Z,49.22
2023-05-14T07:26:47.998Z,48.06
2023-05-14T07:27:47.990Z,43.03
2023-05-14T07:28:48.012Z,50.05
2023-05-14T07:29:48.046Z,50.05
2023-05-14T07:30:48.030Z,45.53
2023-05-14T07:31:48.176Z,40.46
2023-05-14T07:32:48.146Z,39.20
2023-05-14T07:33:48.083Z,34.47
2023-05-14T07:34:48.131Z,33.36
2023-05-14T07:35:48.134Z,29.14
2023-05-14T07:36:48.142Z,27.10
2023-05-14T07:37:48.151Z,25.16
2023-05-14T07:38:48.152Z,26.50
2023-05-14T07:39:48.170Z,26.96
2023-05-14T07:40:48.164Z,35.20
2023-05-14T07:41:48.174Z,38.47
2023-05-14T07:42:48.210Z,43.49
2023-05-14T07:43:48.210Z,44.93
2023-05-14T07:44:48.214Z,43.97
2023-05-14T07:45:48.244Z,38.92
2023-05-14T07:46:48.239Z,31.92
2023-05-14T07:47:48.396Z,30.88
2023-05-14T07:48:48.253Z,25.60
2023-05-14T07:49:48.303Z,28.84
2023-05-14T07:50:48.301Z,27.88
2023-05-14T07:51:48.306Z,25.51
2023-05-14T07:52:48.322Z,27.11
2023-05-14T07:53:48.334Z,28.45
2023-05-14T07:54:50.594Z,26.02
2023-05-14T07:55:48.334Z,25.00
2023-05-14T07:56:48.370Z,28.10
2023-05-14T07:57:48.336Z,31.38
2023-05-14T07:58:48.332Z,34.82
2023-05-14T07:59:48.382Z,35.49
2023-05-14T08:00:48.421Z,41.25
2023-05-14T08:01:48.433Z,42.00
2023-05-14T08:02:48.526Z,44.55
2023-05-14T08:03:48.499Z,43.31
2023-05-14T08:04:48.478Z,46.22
2023-05-14T08:05:48.581Z,47.13
2023-05-14T08:06:48.641Z,45.89
2023-05-14T08:07:48.660Z,46.53
2023-05-14T08:08:48.614Z,48.54
2023-05-14T08:09:48.618Z,52.08
2023-05-14T08:10:48.705Z,54.54
2023-05-14T08:11:48.672Z,58.89
2023-05-14T08:12:48.655Z,57.08
2023-05-14T08:13:48.650Z,62.36
2023-05-14T08:14:48.672Z,67.86
2023-05-14T08:15:48.670Z,64.97
2023-05-14T08:16:48.858Z,63.93
2023-05-14T08:17:48.919Z,65.63
2023-05-14T08:18:48.962Z,62.06
2023-05-14T08:19:48.922Z,64.92
2023-05-14T08:20:48.973Z,62.85
2023-05-14T08:21:49.025Z,54.94
2023-05-14T08:22:49.039Z,57.72
2023-05-14T08:23:49.070Z,57.46
2023-05-14T08:24:49.176Z,60.53
2023-05-14T08:25:49.224Z,58.62
2023-05-14T08:26:49.293Z,55.36
2023-05-14T08:27:49.271Z,50.22
2023-05-14T08:28:49.324Z,39.31
2023-05-14T08:29:49.353Z,32.01
2023-05-14T08:30:49.442Z,33.18
2023-05-14T08:31:49.456Z,30.14
2023-05-14T08:32:49.470Z,27.66
2023-05-14T08:33:49.529Z,29.83
2023-05-14T08:34:49.619Z,28.29
2023-05-14T08:35:49.680Z,42.36
2023-05-14T08:36:49.776Z,49.80
2023-05-14T08:37:49.802Z,49.24
2023-05-14T08:38:49.882Z,55.92
2023-05-14T08:39:49.961Z,44.21
2023-05-14T08:40:50.052Z,61.80
2023-05-14T08:41:50.117Z,61.54
2023-05-14T08:42:50.154Z,57.51
2023-05-14T08:43:50.207Z,47.83
2023-05-14T08:44:50.307Z,47.35
2023-05-14T08:45:50.329Z,51.30
2023-05-14T08:46:50.388Z,53.79
2023-05-14T08:47:50.579Z,49.40
2023-05-14T08:48:50.573Z,51.93
2023-05-14T08:49:50.544Z,61.02
2023-05-14T08:50:50.611Z,57.38
2023-05-14T08:51:50.681Z,50.59
2023-05-14T08:52:50.715Z,48.75
2023-05-14T08:53:50.777Z,56.39
2023-05-14T08:54:50.827Z,50.22
2023-05-14T08:55:50.914Z,50.80
2023-05-14T08:56:51.868Z,57.01
2023-05-14T08:57:50.967Z,41.20
2023-05-14T08:58:51.033Z,42.64
2023-05-14T08:59:51.069Z,38.87
2023-05-14T09:00:51.138Z,46.10
2023-05-14T09:01:51.179Z,35.13
2023-05-14T09:02:51.257Z,58.48
2023-05-14T09:03:51.272Z,41.82
2023-05-14T09:04:51.274Z,50.87
2023-05-14T09:05:51.298Z,41.59
2023-05-14T09:06:51.313Z,40.53
2023-05-14T09:07:51.338Z,35.16
2023-05-14T09:08:51.373Z,37.71
2023-05-14T09:09:51.420Z,34.27
2023-05-14T09:10:51.503Z,29.77
2023-05-14T09:11:51.463Z,25.00
2023-05-14T09:12:51.497Z,36.03
2023-05-14T09:13:51.541Z,26.33
2023-05-14T09:14:51.547Z,37.12
2023-05-14T09:15:51.588Z,35.69
2023-05-14T09:16:51.684Z,29.96
2023-05-14T09:17:51.661Z,31.96
2023-05-14T09:18:51.640Z,38.24
2023-05-14T09:19:51.622Z,27.68
2023-05-14T09:20:51.616Z,27.89
2023-05-14T09:21:51.626Z,28.90
2023-05-14T09:22:51.642Z,25.15
2023-05-14T09:23:51.653Z,33.12
2023-05-14T09:24:51.691Z,33.14
2023-05-14T09:25:51.672Z,37.72
2023-05-14T09:26:51.674Z,34.96
2023-05-14T09:27:51.699Z,32.01
2023-05-14T09:28:51.689Z,30.38
2023-05-14T09:29:51.687Z,32.08
2023-05-14T09:30:51.690Z,33.74
2023-05-14T09:31:51.893Z,30.18
2023-05-14T09:32:51.691Z,31.64
2023-05-14T09:33:51.669Z,35.73
2023-05-14T09:34:51.688Z,31.27
2023-05-14T09:35:51.672Z,37.40
2023-05-14T09:36:51.690Z,41.21
2023-05-14T09:37:51.708Z,41.31
2023-05-14T09:38:51.711Z,38.74
2023-05-14T09:39:51.720Z,44.90
2023-05-14T09:40:51.780Z,48.57
2023-05-14T09:41:51.771Z,45.55
2023-05-14T09:42:51.753Z,46.59
2023-05-14T09:43:51.762Z,47.02
2023-05-14T09:44:51.799Z,46.62
2023-05-14T09:45:51.819Z,36.05
2023-05-14T09:46:51.848Z,31.13
2023-05-14T09:47:51.975Z,25.51
2023-05-14T09:48:51.868Z,36.58
2023-05-14T09:49:51.880Z,26.32
2023-05-14T09:50:51.886Z,28.62
2023-05-14T09:51:51.889Z,28.19
2023-05-14T09:52:51.905Z,25.00
2023-05-14T09:53:51.906Z,33.62
2023-05-14T09:54:51.937Z,31.60
2023-05-14T09:55:51.924Z,28.28
2023-05-14T09:56:52.960Z,30.18
2023-05-14T09:57:52.049Z,27.59
2023-05-14T09:58:52.054Z,32.87
2023-05-14T09:59:52.069Z,34.40
2023-05-14T10:00:52.117Z,30.32
2023-05-14T10:01:52.105Z,31.80
2023-05-14T10:02:52.184Z,33.56
2023-05-14T10:03:52.179Z,35.61
2023-05-14T10:04:52.220Z,36.89
2023-05-14T10:05:52.168Z,28.89
2023-05-14T10:06:52.186Z,33.93
2023-05-14T10:07:52.161Z,33.37
2023-05-14T10:08:52.182Z,28.39
2023-05-14T10:09:52.184Z,27.91
2023-05-14T10:10:52.187Z,25.13
2023-05-14T10:11:52.193Z,32.36
2023-05-14T10:12:52.200Z,35.01
2023-05-14T10:13:52.199Z,36.91
2023-05-14T10:14:52.190Z,29.68
2023-05-14T10:15:52.203Z,28.45
2023-05-14T10:16:52.208Z,27.93
2023-05-14T10:17:52.244Z,29.96
2023-05-14T10:18:52.247Z,32.10
2023-05-14T10:19:52.193Z,33.04
2023-05-14T10:20:52.204Z,30.30
2023-05-14T10:21:52.215Z,25.00
2023-05-14T10:22:52.229Z,25.00
2023-05-14T10:23:52.196Z,28.24
2023-05-14T10:24:52.207Z,34.02
2023-05-14T10:25:52.214Z,26.29
2023-05-14T10:26:52.218Z,29.29
2023-05-14T10:27:52.223Z,29.20
2023-05-14T10:28:52.209Z,32.08
2023-05-14T10:29:52.228Z,33.49
2023-05-14T10:30:52.273Z,33.28
2023-05-14T10:31:52.239Z,28.26
2023-05-14T10:32:52.288Z,32.98
2023-05-14T10:33:52.240Z,35.38
2023-05-14T10:34:52.249Z,28.74
2023-05-14T10:35:52.236Z,26.56
2023-05-14T10:36:52.231Z,25.78
2023-05-14T10:37:52.246Z,31.24
2023-05-14T10:38:52.248Z,30.92
2023-05-14T10:39:52.257Z,35.07
2023-05-14T10:40:54.174Z,33.76
2023-05-14T10:41:52.279Z,33.58
2023-05-14T10:42:52.256Z,26.71
2023-05-14T10:43:52.235Z,32.93
2023-05-14T10:44:52.277Z,25.00
2023-05-14T10:45:52.249Z,24.87
2023-05-14T10:46:52.312Z,25.68
2023-05-14T10:47:52.308Z,28.05
2023-05-14T10:48:52.263Z,37.93
2023-05-14T10:49:52.263Z,32.63
2023-05-14T10:50:52.310Z,28.44
2023-05-14T10:51:52.312Z,27.00
2023-05-14T10:52:52.274Z,41.42
2023-05-14T10:53:52.276Z,50.53
2023-05-14T10:54:52.276Z,57.13
2023-05-14T10:55:52.285Z,66.70
2023-05-14T10:56:52.282Z,68.45
2023-05-14T10:57:52.307Z,69.70
2023-05-14T10:58:52.295Z,72.72
2023-05-14T10:59:52.296Z,53.21
2023-05-14T11:00:52.320Z,31.97
2023-05-14T11:01:52.358Z,25.00
2023-05-14T11:02:52.347Z,28.42
2023-05-14T11:03:52.391Z,25.63
2023-05-14T11:04:52.344Z,35.01
2023-05-14T11:05:52.328Z,24.53
2023-05-14T11:06:52.355Z,22.09
2023-05-14T11:07:52.371Z,34.98
2023-05-14T11:08:52.378Z,29.34
2023-05-14T11:09:52.385Z,33.98
2023-05-14T11:10:52.382Z,30.75
2023-05-14T11:11:52.401Z,43.81
2023-05-14T11:12:52.393Z,66.97
2023-05-14T11:13:52.422Z,40.80
2023-05-14T11:14:52.430Z,47.54
2023-05-14T11:15:52.438Z,41.18
2023-05-14T11:16:52.508Z,33.78
2023-05-14T11:17:52.493Z,28.99
2023-05-14T11:18:52.492Z,39.36
2023-05-14T11:19:52.471Z,43.29
2023-05-14T11:20:52.453Z,33.13
2023-05-14T11:21:52.474Z,25.00
2023-05-14T11:22:52.519Z,38.12
2023-05-14T11:23:52.501Z,37.47
2023-05-14T11:24:52.545Z,25.76
2023-05-14T11:25:52.577Z,25.52
2023-05-14T11:26:52.538Z,41.38
2023-05-14T11:27:52.559Z,24.04
2023-05-14T11:28:52.573Z,30.26
2023-05-14T11:29:52.584Z,33.90
2023-05-14T11:30:52.571Z,52.19
2023-05-14T11:31:52.631Z,49.41
2023-05-14T11:32:52.661Z,48.66
2023-05-14T11:33:52.633Z,49.51
2023-05-14T11:34:52.645Z,57.54
2023-05-14T11:35:52.637Z,25.35
2023-05-14T11:36:52.674Z,25.00
2023-05-14T11:37:52.717Z,34.01
2023-05-14T11:38:52.862Z,42.57
2023-05-14T11:39:52.717Z,44.15
2023-05-14T11:40:52.732Z,38.69
2023-05-14T11:41:52.782Z,37.12
2023-05-14T11:42:52.766Z,35.55
2023-05-14T11:43:52.785Z,36.53
2023-05-14T11:44:52.819Z,30.47
2023-05-14T11:45:52.891Z,29.83
2023-05-14T11:46:52.861Z,31.44
2023-05-14T11:47:52.885Z,26.97
2023-05-14T11:48:52.910Z,26.28
2023-05-14T11:49:52.939Z,32.35
2023-05-14T11:50:53.049Z,28.80
2023-05-14T11:51:52.973Z,36.08
2023-05-14T11:52:53.049Z,31.05
2023-05-14T11:53:53.044Z,28.06
2023-05-14T11:54:53.051Z,18.21
2023-05-14T11:55:53.093Z,29.78
2023-05-14T11:56:53.115Z,27.37
2023-05-14T11:57:53.163Z,25.00
2023-05-14T11:58:53.181Z,36.21
2023-05-14T11:59:53.209Z,30.20
2023-05-14T12:00:53.234Z,30.89
2023-05-14T12:01:53.254Z,35.29
2023-05-14T12:02:53.342Z,39.72
2023-05-14T12:03:53.429Z,27.84
2023-05-14T12:04:53.420Z,36.28
2023-05-14T12:05:53.387Z,31.68
2023-05-14T12:06:53.411Z,44.04
2023-05-14T12:07:53.476Z,27.42
2023-05-14T12:08:53.481Z,42.37
2023-05-14T12:09:53.500Z,50.27
2023-05-14T12:10:53.544Z,61.34
2023-05-14T12:11:53.593Z,56.06
2023-05-14T12:12:53.615Z,71.85
2023-05-14T12:13:53.632Z,71.60
2023-05-14T12:14:53.676Z,70.44
2023-05-14T12:15:53.759Z,67.73
2023-05-14T12:16:53.725Z,72.62
2023-05-14T12:17:53.817Z,77.69
2023-05-14T12:18:53.819Z,82.40
2023-05-14T12:19:53.863Z,83.82
2023-05-14T12:20:53.887Z,81.52
2023-05-14T12:21:53.894Z,88.08
2023-05-14T12:22:53.970Z,97.81
2023-05-14T12:23:53.997Z,92.00
2023-05-14T12:24:54.057Z,96.21
2023-05-14T12:25:54.036Z,86.58
2023-05-14T12:26:54.086Z,88.06
2023-05-14T12:27:54.118Z,88.56
2023-05-14T12:28:54.128Z,80.91
2023-05-14T12:29:54.208Z,94.40
2023-05-14T12:30:54.225Z,92.24
2023-05-14T12:31:54.321Z,86.31
2023-05-14T12:32:54.382Z,93.40
2023-05-14T12:33:54.318Z,80.81
2023-05-14T12:34:54.352Z,89.22
2023-05-14T12:35:54.379Z,75.00
2023-05-14T12:36:54.425Z,68.63
2023-05-14T12:37:54.465Z,71.20
2023-05-14T12:38:54.471Z,67.59
2023-05-14T12:39:54.512Z,58.76
2023-05-14T12:40:54.552Z,49.21
2023-05-14T12:41:54.614Z,45.83
2023-05-14T12:42:56.708Z,53.50
2023-05-14T12:43:54.648Z,52.27
2023-05-14T12:44:54.693Z,64.05
2023-05-14T12:45:54.715Z,78.01